createdAt,value
2017-04-15T00:00:01.907Z,0
2017-04-15T00:00:42.302Z,0
2017-04-15T00:01:22.725Z,0
2017-04-15T00:02:03.107Z,0
2017-04-15T00:02:43.547Z,0
2017-04-15T00:03:23.958Z,0
2017-04-15T00:04:04.351Z,0
2017-04-15T00:04:44.792Z,0
2017-04-15T00:05:25.184Z,0
2017-04-15T00:06:05.631Z,0
2017-04-15T00:06:46.016Z,0
2017-04-15T00:07:26.516Z,0
2017-04-15T00:08:06.922Z,0
2017-04-15T00:08:47.394Z,0
2017-04-15T00:09:27.793Z,0
2017-04-15T00:10:08.203Z,0
2017-04-15T00:10:48.603Z,0
2017-04-15T00:11:29.005Z,0
2017-04-15T00:12:09.418Z,0
2017-04-15T00:12:49.801Z,0
2017-04-15T00:13:30.201Z,0
2017-04-15T00:14:10.610Z,0
2017-04-15T00:14:51.049Z,0
2017-04-15T00:15:31.421Z,0
2017-04-15T00:16:11.891Z,0
2017-04-15T00:16:52.297Z,0
2017-04-15T00:17:32.718Z,0
2017-04-15T00:18:13.137Z,0
2017-04-15T00:18:53.560Z,0
2017-04-15T00:21:21.636Z,0
2017-04-15T00:22:02.050Z,0
2017-04-15T00:22:42.477Z,0
2017-04-15T00:23:22.935Z,0
2017-04-15T00:24:03.300Z,0
2017-04-15T00:24:43.741Z,0
2017-04-15T00:25:24.124Z,0
2017-04-15T00:27:37.241Z,0
2017-04-15T00:28:17.636Z,0
2017-04-15T00:28:58.062Z,0
2017-04-15T00:29:38.479Z,0
2017-04-15T00:31:54.424Z,0
2017-04-15T00:32:34.852Z,0
2017-04-15T00:33:15.272Z,0
2017-04-15T00:35:29.788Z,0
2017-04-15T00:36:10.219Z,0
2017-04-15T00:36:51.239Z,0
2017-04-15T00:37:31.734Z,0
2017-04-15T00:38:12.179Z,0
2017-04-15T00:38:52.604Z,0
2017-04-15T00:39:32.977Z,0
2017-04-15T00:42:06.312Z,0
2017-04-15T00:42:46.801Z,0
2017-04-15T00:43:27.192Z,0
2017-04-15T00:44:07.602Z,0
2017-04-15T00:44:48.052Z,0
2017-04-15T00:45:28.438Z,0
2017-04-15T00:46:08.861Z,0
2017-04-15T00:46:49.293Z,0
2017-04-15T00:47:29.707Z,0
2017-04-15T00:48:10.111Z,0
2017-04-15T00:48:50.509Z,0
2017-04-15T00:49:30.897Z,0
2017-04-15T00:50:11.304Z,0
2017-04-15T00:50:51.722Z,0
2017-04-15T00:51:32.137Z,0
2017-04-15T00:52:12.574Z,0
2017-04-15T00:52:52.969Z,0
2017-04-15T00:55:06.395Z,0
2017-04-15T00:55:46.903Z,0
2017-04-15T00:56:27.337Z,0
2017-04-15T00:57:07.755Z,0
2017-04-15T00:57:48.182Z,0
2017-04-15T00:58:28.589Z,0
2017-04-15T00:59:09.016Z,0
2017-04-15T00:59:49.460Z,0
2017-04-15T01:00:29.891Z,0
2017-04-15T01:01:10.293Z,0
2017-04-15T01:01:50.714Z,0
2017-04-15T01:02:31.125Z,0
2017-04-15T01:03:11.541Z,0
2017-04-15T01:03:51.973Z,0
2017-04-15T01:04:32.365Z,0
2017-04-15T01:05:12.786Z,0
2017-04-15T01:05:53.196Z,0
2017-04-15T01:06:33.629Z,0
2017-04-15T01:07:14.066Z,0
2017-04-15T01:07:54.510Z,0
2017-04-15T01:08:34.938Z,0
2017-04-15T01:09:15.357Z,0
2017-04-15T01:09:55.796Z,0
2017-04-15T01:10:36.179Z,0
2017-04-15T01:11:17.250Z,0
2017-04-15T01:11:57.645Z,0
2017-04-15T01:12:38.056Z,0
2017-04-15T01:13:18.454Z,0
2017-04-15T01:13:58.865Z,0
2017-04-15T01:14:39.245Z,0
2017-04-15T01:15:19.670Z,0
2017-04-15T01:17:38.126Z,0
2017-04-15T01:20:06.096Z,0
2017-04-15T01:20:46.544Z,0
2017-04-15T01:21:26.943Z,0
2017-04-15T01:22:07.374Z,0
2017-04-15T01:22:47.814Z,0
2017-04-15T01:23:28.244Z,0
2017-04-15T01:24:08.675Z,0
2017-04-15T01:24:49.083Z,0
2017-04-15T01:25:29.513Z,0
2017-04-15T01:26:09.902Z,0
2017-04-15T01:26:51.990Z,0
2017-04-15T01:27:32.423Z,0
2017-04-15T01:28:13.476Z,0
2017-04-15T01:28:53.915Z,0
2017-04-15T01:29:35.158Z,0
2017-04-15T01:30:15.544Z,0
2017-04-15T01:30:56.641Z,0
2017-04-15T01:31:37.077Z,0
2017-04-15T01:32:19.024Z,0
2017-04-15T01:36:40.810Z,0
2017-04-15T01:37:21.221Z,0
2017-04-15T01:38:01.643Z,0
2017-04-15T01:38:42.087Z,0
2017-04-15T01:39:22.488Z,0
2017-04-15T01:40:03.652Z,0
2017-04-15T01:40:44.052Z,0
2017-04-15T01:43:12.219Z,0
2017-04-15T01:43:52.650Z,0
2017-04-15T01:44:33.051Z,0
2017-04-15T01:45:13.470Z,0
2017-04-15T01:45:53.874Z,0
2017-04-15T01:46:34.272Z,0
2017-04-15T01:47:14.689Z,0
2017-04-15T01:47:55.092Z,0
2017-04-15T01:48:35.515Z,0
2017-04-15T01:49:15.944Z,0
2017-04-15T01:49:56.365Z,0
2017-04-15T01:50:36.780Z,0
2017-04-15T01:51:17.188Z,0
2017-04-15T01:51:57.631Z,0
2017-04-15T01:52:38.083Z,0
2017-04-15T01:53:18.516Z,0
2017-04-15T01:53:58.901Z,0
2017-04-15T01:54:39.297Z,0
2017-04-15T01:55:19.789Z,0
2017-04-15T01:56:00.199Z,0
2017-04-15T01:56:40.608Z,0
2017-04-15T01:57:21.010Z,0
2017-04-15T01:58:01.404Z,0
2017-04-15T01:58:41.847Z,0
2017-04-15T01:59:22.274Z,0
2017-04-15T02:01:56.860Z,0
2017-04-15T02:02:37.289Z,0
2017-04-15T02:03:17.694Z,0
2017-04-15T02:03:58.127Z,0
2017-04-15T02:04:38.564Z,0
2017-04-15T02:07:11.979Z,0
2017-04-15T02:07:52.412Z,0
2017-04-15T02:08:32.872Z,0
2017-04-15T02:09:13.272Z,0
2017-04-15T02:09:53.693Z,0
2017-04-15T02:12:33.383Z,0
2017-04-15T02:13:13.832Z,0
2017-04-15T02:13:54.312Z,0
2017-04-15T02:14:34.703Z,0
2017-04-15T02:15:15.115Z,0
2017-04-15T02:15:55.526Z,0
2017-04-15T02:16:35.986Z,0
2017-04-15T02:17:16.441Z,0
2017-04-15T02:19:54.841Z,0
2017-04-15T02:20:35.260Z,0
2017-04-15T02:21:15.669Z,0
2017-04-15T02:21:56.085Z,0
2017-04-15T02:22:36.535Z,0
2017-04-15T02:23:16.903Z,0
2017-04-15T02:23:57.350Z,0
2017-04-15T02:24:37.741Z,0
2017-04-15T02:26:51.932Z,0
2017-04-15T02:27:32.382Z,0
2017-04-15T02:28:12.812Z,0
2017-04-15T02:28:53.213Z,0
2017-04-15T02:29:33.640Z,0
2017-04-15T02:30:14.068Z,0
2017-04-15T02:30:54.515Z,0
2017-04-15T02:31:34.905Z,0
2017-04-15T02:32:15.288Z,0
2017-04-15T02:32:55.713Z,0
2017-04-15T02:35:13.665Z,0
2017-04-15T02:35:54.063Z,0
2017-04-15T02:38:06.939Z,0
2017-04-15T02:38:47.360Z,0
2017-04-15T02:39:27.769Z,0
2017-04-15T02:40:08.197Z,0
2017-04-15T02:40:48.643Z,0
2017-04-15T02:41:29.038Z,0
2017-04-15T02:42:09.447Z,0
2017-04-15T02:42:50.756Z,0
2017-04-15T02:43:31.194Z,0
2017-04-15T02:44:11.612Z,0
2017-04-15T02:44:52.766Z,0
2017-04-15T02:47:30.951Z,0
2017-04-15T02:48:11.362Z,0
2017-04-15T02:48:51.785Z,0
2017-04-15T02:49:32.234Z,0
2017-04-15T02:52:10.472Z,0
2017-04-15T02:52:50.901Z,0
2017-04-15T02:53:31.322Z,0
2017-04-15T02:54:11.783Z,0
2017-04-15T02:54:52.231Z,0
2017-04-15T02:55:32.665Z,0
2017-04-15T02:56:13.097Z,0
2017-04-15T02:56:53.527Z,0
2017-04-15T02:57:33.930Z,0
2017-04-15T02:58:14.914Z,0
2017-04-15T02:58:55.325Z,0
2017-04-15T02:59:35.719Z,0
2017-04-15T03:00:16.142Z,0
2017-04-15T03:00:56.571Z,0
2017-04-15T03:01:36.990Z,0
2017-04-15T03:02:17.381Z,0
2017-04-15T03:02:57.814Z,0
2017-04-15T03:03:38.241Z,0
2017-04-15T03:04:18.664Z,0
2017-04-15T03:04:59.098Z,0
2017-04-15T03:05:39.532Z,0
2017-04-15T03:06:19.971Z,0
2017-04-15T03:07:00.402Z,0
2017-04-15T03:07:40.819Z,0
2017-04-15T03:10:13.990Z,0
2017-04-15T03:10:54.430Z,0
2017-04-15T03:11:34.875Z,0
2017-04-15T03:12:15.288Z,0
2017-04-15T03:12:55.730Z,0
2017-04-15T03:15:24.256Z,0
2017-04-15T03:16:04.691Z,0
2017-04-15T03:16:45.125Z,0
2017-04-15T03:17:25.538Z,0
2017-04-15T03:18:05.970Z,0
2017-04-15T03:20:39.146Z,0
2017-04-15T03:21:19.678Z,0
2017-04-15T03:21:59.981Z,0
2017-04-15T03:22:40.414Z,0
2017-04-15T03:23:20.830Z,0
2017-04-15T03:24:01.237Z,0
2017-04-15T03:24:41.709Z,0
2017-04-15T03:25:22.142Z,0
2017-04-15T03:27:40.839Z,0
2017-04-15T03:28:21.275Z,0
2017-04-15T03:29:01.707Z,0
2017-04-15T03:29:42.137Z,0
2017-04-15T03:30:22.576Z,0
2017-04-15T03:31:03.033Z,0
2017-04-15T03:31:43.479Z,0
2017-04-15T03:32:23.910Z,0
2017-04-15T03:33:04.348Z,0
2017-04-15T03:33:44.792Z,0
2017-04-15T03:34:25.199Z,0
2017-04-15T03:35:05.639Z,0
2017-04-15T03:35:46.069Z,0
2017-04-15T03:36:26.492Z,0
2017-04-15T03:37:06.919Z,0
2017-04-15T03:37:47.342Z,0
2017-04-15T03:38:27.751Z,0
2017-04-15T03:39:08.150Z,0
2017-04-15T03:39:48.565Z,0
2017-04-15T03:40:28.988Z,0
2017-04-15T03:41:09.412Z,0
2017-04-15T03:41:49.820Z,0
2017-04-15T03:42:30.226Z,0
2017-04-15T03:43:10.665Z,0
2017-04-15T03:43:51.046Z,0
2017-04-15T03:44:31.472Z,0
2017-04-15T03:45:11.899Z,0
2017-04-15T03:45:52.294Z,0
2017-04-15T03:46:32.728Z,0
2017-04-15T03:47:13.123Z,0
2017-04-15T03:47:53.553Z,0
2017-04-15T03:48:33.987Z,0
2017-04-15T03:49:14.403Z,0
2017-04-15T03:49:54.791Z,0
2017-04-15T03:50:35.195Z,0
2017-04-15T03:52:48.252Z,0
2017-04-15T03:53:28.666Z,0
2017-04-15T03:54:09.107Z,0
2017-04-15T03:54:49.551Z,0
2017-04-15T03:55:29.999Z,0
2017-04-15T03:56:10.381Z,0
2017-04-15T03:58:23.225Z,0
2017-04-15T03:59:03.637Z,0
2017-04-15T03:59:44.087Z,0
2017-04-15T04:00:24.511Z,0
2017-04-15T04:01:04.910Z,0
2017-04-15T04:01:45.332Z,0
2017-04-15T04:02:25.719Z,0
2017-04-15T04:03:06.127Z,0
2017-04-15T04:03:47.211Z,0
2017-04-15T04:04:27.630Z,0
2017-04-15T04:05:07.993Z,0
2017-04-15T04:05:48.400Z,0
2017-04-15T04:08:26.789Z,0
2017-04-15T04:09:07.197Z,0
2017-04-15T04:09:47.629Z,0
2017-04-15T04:10:28.053Z,0
2017-04-15T04:11:08.478Z,0
2017-04-15T04:13:26.452Z,0
2017-04-15T04:14:06.888Z,0
2017-04-15T04:14:47.334Z,0
2017-04-15T04:15:27.753Z,0
2017-04-15T04:16:08.160Z,0
2017-04-15T04:16:48.587Z,0
2017-04-15T04:17:29.007Z,0
2017-04-15T04:18:10.328Z,0
2017-04-15T04:18:50.736Z,0
2017-04-15T04:19:31.185Z,0
2017-04-15T04:20:11.602Z,0
2017-04-15T04:20:52.027Z,0
2017-04-15T04:21:32.463Z,0
2017-04-15T04:22:12.845Z,0
2017-04-15T04:22:53.253Z,0
2017-04-15T04:23:33.685Z,0
2017-04-15T04:24:14.095Z,0
2017-04-15T04:24:54.524Z,0
2017-04-15T04:25:35.015Z,0
2017-04-15T04:26:15.420Z,0
2017-04-15T04:26:55.847Z,5
2017-04-15T04:27:36.298Z,5
2017-04-15T04:30:05.307Z,5
2017-04-15T04:30:45.736Z,5
2017-04-15T04:31:26.177Z,5
2017-04-15T04:32:06.605Z,5
2017-04-15T04:32:47.001Z,5
2017-04-15T04:33:27.414Z,5
2017-04-15T04:34:07.845Z,10
2017-04-15T04:34:48.273Z,10
2017-04-15T04:35:28.724Z,10
2017-04-15T04:36:09.182Z,10
2017-04-15T04:36:49.557Z,10
2017-04-15T04:37:29.886Z,10
2017-04-15T04:38:10.362Z,10
2017-04-15T04:38:50.751Z,10
2017-04-15T04:39:31.188Z,15
2017-04-15T04:40:11.660Z,15
2017-04-15T04:40:52.047Z,15
2017-04-15T04:41:32.488Z,15
2017-04-15T04:42:12.884Z,15
2017-04-15T04:42:53.322Z,20
2017-04-15T04:43:33.734Z,20
2017-04-15T04:44:14.179Z,20
2017-04-15T04:44:54.580Z,20
2017-04-15T04:45:35.056Z,25
2017-04-15T04:46:15.427Z,25
2017-04-15T04:46:55.877Z,25
2017-04-15T04:47:36.334Z,25
2017-04-15T04:48:16.744Z,30
2017-04-15T04:48:57.139Z,30
2017-04-15T04:49:37.573Z,30
2017-04-15T04:50:17.976Z,30
2017-04-15T04:50:58.374Z,30
2017-04-15T04:53:26.537Z,35
2017-04-15T04:54:06.924Z,35
2017-04-15T04:54:47.370Z,35
2017-04-15T04:55:27.756Z,35
2017-04-15T04:56:08.168Z,35
2017-04-15T04:56:48.571Z,40
2017-04-15T04:57:28.990Z,40
2017-04-15T04:58:09.369Z,40
2017-04-15T04:58:49.817Z,40
2017-04-15T04:59:30.229Z,40
2017-04-15T05:01:48.402Z,50
2017-04-15T05:02:28.815Z,50
2017-04-15T05:03:09.205Z,50
2017-04-15T05:03:49.635Z,55
2017-04-15T05:04:30.056Z,55
2017-04-15T05:05:10.471Z,60
2017-04-15T05:05:50.919Z,60
2017-04-15T05:06:31.325Z,65
2017-04-15T05:08:44.161Z,70
2017-04-15T05:09:24.578Z,70
2017-04-15T05:10:04.998Z,70
2017-04-15T05:10:45.406Z,75
2017-04-15T05:11:25.808Z,75
2017-04-15T05:12:08.035Z,80
2017-04-15T05:12:48.464Z,85
2017-04-15T05:13:28.902Z,85
2017-04-15T05:14:09.271Z,90
2017-04-15T05:14:49.689Z,95
2017-04-15T05:15:30.100Z,95
2017-04-15T05:16:10.520Z,95
2017-04-15T05:16:52.747Z,100
2017-04-15T05:17:33.142Z,100
2017-04-15T05:20:06.630Z,105
2017-04-15T05:20:47.074Z,105
2017-04-15T05:21:27.513Z,105
2017-04-15T05:22:07.924Z,105
2017-04-15T05:22:48.366Z,100
2017-04-15T05:23:28.781Z,100
2017-04-15T05:24:09.150Z,100
2017-04-15T05:24:49.548Z,100
2017-04-15T05:25:29.966Z,100
2017-04-15T05:26:10.407Z,100
2017-04-15T05:26:50.903Z,105
2017-04-15T05:27:31.314Z,105
2017-04-15T05:28:11.757Z,105
2017-04-15T05:28:52.162Z,105
2017-04-15T05:29:32.579Z,105
2017-04-15T05:30:13.644Z,105
2017-04-15T05:30:56.623Z,105
2017-04-15T05:31:37.247Z,110
2017-04-15T05:34:15.476Z,115
2017-04-15T05:34:56.429Z,115
2017-04-15T05:35:37.938Z,120
2017-04-15T05:36:20.255Z,120
2017-04-15T05:37:00.696Z,120
2017-04-15T05:37:41.122Z,125
2017-04-15T05:38:21.533Z,125
2017-04-15T05:39:01.967Z,125
2017-04-15T05:41:35.135Z,130
2017-04-15T05:42:16.516Z,135
2017-04-15T05:43:00.262Z,135
2017-04-15T05:43:40.681Z,140
2017-04-15T05:44:21.082Z,145
2017-04-15T05:45:02.097Z,150
2017-04-15T05:45:42.499Z,150
2017-04-15T05:46:22.961Z,155
2017-04-15T05:47:03.448Z,160
2017-04-15T05:47:43.913Z,165
2017-04-15T05:48:24.507Z,170
2017-04-15T05:49:04.766Z,175
2017-04-15T05:49:45.305Z,180
2017-04-15T05:50:26.515Z,185
2017-04-15T05:53:00.469Z,195
2017-04-15T05:53:41.872Z,200
2017-04-15T05:54:22.291Z,200
2017-04-15T05:55:02.736Z,200
2017-04-15T05:55:43.157Z,205
2017-04-15T05:58:16.306Z,230
2017-04-15T05:58:56.707Z,235
2017-04-15T05:59:37.117Z,240
2017-04-15T06:00:17.492Z,240
2017-04-15T06:00:57.905Z,240
2017-04-15T06:01:38.366Z,240
2017-04-15T06:02:18.776Z,235
2017-04-15T06:02:59.214Z,235
2017-04-15T06:03:39.634Z,235
2017-04-15T06:04:20.091Z,235
2017-04-15T06:05:00.465Z,240
2017-04-15T06:05:40.899Z,240
2017-04-15T06:06:21.296Z,245
2017-04-15T06:07:01.719Z,250
2017-04-15T06:07:42.146Z,255
2017-04-15T06:08:22.603Z,260
2017-04-15T06:09:03.029Z,270
2017-04-15T06:09:43.427Z,275
2017-04-15T06:10:23.844Z,280
2017-04-15T06:11:04.226Z,285
2017-04-15T06:13:17.234Z,315
2017-04-15T06:13:57.662Z,330
2017-04-15T06:14:38.119Z,330
2017-04-15T06:15:18.539Z,335
2017-04-15T06:15:58.948Z,335
2017-04-15T06:16:39.411Z,335
2017-04-15T06:17:19.796Z,335
2017-04-15T06:18:00.199Z,335
2017-04-15T06:18:40.606Z,330
2017-04-15T06:19:21.092Z,330
2017-04-15T06:20:01.506Z,325
2017-04-15T06:20:41.899Z,325
2017-04-15T06:21:22.337Z,320
2017-04-15T06:22:02.781Z,320
2017-04-15T06:22:43.164Z,320
2017-04-15T06:23:23.542Z,315
2017-04-15T06:24:03.973Z,305
2017-04-15T06:24:44.397Z,300
2017-04-15T06:25:24.799Z,295
2017-04-15T06:26:05.190Z,285
2017-04-15T06:26:46.359Z,280
2017-04-15T06:27:26.806Z,280
2017-04-15T06:28:07.196Z,275
2017-04-15T06:28:47.709Z,270
2017-04-15T06:29:28.362Z,270
2017-04-15T06:30:08.830Z,270
2017-04-15T06:30:49.316Z,275
2017-04-15T06:31:30.041Z,280
2017-04-15T06:33:43.295Z,305
2017-04-15T06:34:23.691Z,315
2017-04-15T06:35:04.151Z,330
2017-04-15T06:35:44.554Z,340
2017-04-15T06:36:24.975Z,355
2017-04-15T06:37:05.404Z,365
2017-04-15T06:37:45.801Z,375
2017-04-15T06:38:26.231Z,380
2017-04-15T06:39:06.656Z,390
2017-04-15T06:39:47.038Z,395
2017-04-15T06:40:27.482Z,395
2017-04-15T06:41:08.499Z,400
2017-04-15T06:41:48.928Z,400
2017-04-15T06:42:29.360Z,405
2017-04-15T06:43:09.745Z,405
2017-04-15T06:43:50.161Z,405
2017-04-15T06:44:30.574Z,410
2017-04-15T06:45:11.001Z,415
2017-04-15T06:45:51.411Z,420
2017-04-15T06:46:31.844Z,425
2017-04-15T06:47:12.232Z,425
2017-04-15T06:47:52.645Z,430
2017-04-15T06:48:33.050Z,440
2017-04-15T06:49:13.499Z,440
2017-04-15T06:49:53.968Z,445
2017-04-15T06:50:34.370Z,455
2017-04-15T06:51:14.814Z,455
2017-04-15T06:51:55.188Z,465
2017-04-15T06:52:35.622Z,475
2017-04-15T06:53:16.051Z,490
2017-04-15T06:53:56.465Z,495
2017-04-15T06:54:36.955Z,500
2017-04-15T06:55:17.403Z,510
2017-04-15T06:55:57.788Z,515
2017-04-15T06:56:38.263Z,525
2017-04-15T06:57:18.669Z,530
2017-04-15T06:57:59.087Z,540
2017-04-15T06:58:39.515Z,550
2017-04-15T06:59:19.951Z,560
2017-04-15T07:00:00.380Z,565
2017-04-15T07:00:40.819Z,565
2017-04-15T07:01:21.216Z,570
2017-04-15T07:02:01.656Z,570
2017-04-15T07:02:42.083Z,570
2017-04-15T07:03:22.493Z,570
2017-04-15T07:04:02.934Z,570
2017-04-15T07:04:43.456Z,575
2017-04-15T07:05:23.859Z,575
2017-04-15T07:06:04.264Z,575
2017-04-15T07:06:44.706Z,575
2017-04-15T07:07:25.091Z,575
2017-04-15T07:08:05.615Z,575
2017-04-15T07:08:46.031Z,580
2017-04-15T07:09:26.474Z,580
2017-04-15T07:10:06.898Z,590
2017-04-15T07:10:47.311Z,595
2017-04-15T07:11:27.678Z,605
2017-04-15T07:12:08.069Z,605
2017-04-15T07:12:48.504Z,615
2017-04-15T07:13:28.956Z,620
2017-04-15T07:14:09.783Z,625
2017-04-15T07:14:50.664Z,635
2017-04-15T07:17:05.026Z,675
2017-04-15T07:17:45.464Z,685
2017-04-15T07:18:25.923Z,700
2017-04-15T07:19:06.335Z,710
2017-04-15T07:19:46.698Z,730
2017-04-15T07:20:27.105Z,735
2017-04-15T07:21:07.531Z,750
2017-04-15T07:21:47.912Z,770
2017-04-15T07:24:17.790Z,780
2017-04-15T07:24:58.229Z,780
2017-04-15T07:25:38.670Z,780
2017-04-15T07:26:19.115Z,780
2017-04-15T07:26:59.577Z,775
2017-04-15T07:27:39.975Z,770
2017-04-15T07:28:20.376Z,765
2017-04-15T07:29:00.794Z,750
2017-04-15T07:29:41.247Z,730
2017-04-15T07:30:21.685Z,720
2017-04-15T07:31:02.120Z,705
2017-04-15T07:31:42.624Z,695
2017-04-15T07:32:23.069Z,695
2017-04-15T07:33:03.471Z,695
2017-04-15T07:33:43.898Z,695
2017-04-15T07:34:24.324Z,700
2017-04-15T07:35:04.753Z,715
2017-04-15T07:35:45.182Z,745
2017-04-15T07:36:25.606Z,760
2017-04-15T07:39:03.845Z,940
2017-04-15T07:39:44.290Z,1005
2017-04-15T07:40:24.738Z,1010
2017-04-15T07:41:05.182Z,1025
2017-04-15T07:41:45.630Z,1060
2017-04-15T07:42:26.098Z,1100
2017-04-15T07:43:06.593Z,1100
2017-04-15T07:43:46.938Z,1125
2017-04-15T07:44:27.364Z,1120
2017-04-15T07:45:07.798Z,1085
2017-04-15T07:45:48.215Z,1070
2017-04-15T07:46:28.648Z,1055
2017-04-15T07:47:09.036Z,1070
2017-04-15T07:47:49.476Z,1090
2017-04-15T07:48:29.906Z,1065
2017-04-15T07:49:10.341Z,1090
2017-04-15T07:51:28.419Z,1470
2017-04-15T07:52:08.835Z,1385
2017-04-15T07:52:49.296Z,1220
2017-04-15T07:53:29.671Z,1065
2017-04-15T07:54:10.105Z,950
2017-04-15T07:54:50.537Z,950
2017-04-15T07:55:30.977Z,880
2017-04-15T07:56:11.423Z,825
2017-04-15T07:56:51.889Z,805
2017-04-15T07:57:32.302Z,745
2017-04-15T07:58:12.706Z,640
2017-04-15T07:58:53.138Z,600
2017-04-15T07:59:33.559Z,580
2017-04-15T08:00:14.010Z,570
2017-04-15T08:00:54.421Z,570
2017-04-15T08:01:34.827Z,590
2017-04-15T08:02:15.265Z,635
2017-04-15T08:02:55.661Z,695
2017-04-15T08:03:36.083Z,710
2017-04-15T08:04:16.503Z,705
2017-04-15T08:04:56.972Z,725
2017-04-15T08:05:39.212Z,765
2017-04-15T08:06:19.620Z,790
2017-04-15T08:07:00.093Z,845
2017-04-15T08:07:40.550Z,1040
2017-04-15T08:08:20.981Z,1055
2017-04-15T08:09:01.429Z,1045
2017-04-15T08:09:41.853Z,1065
2017-04-15T08:10:22.310Z,1080
2017-04-15T08:11:02.728Z,1110
2017-04-15T08:11:43.176Z,1185
2017-04-15T08:12:23.607Z,1240
2017-04-15T08:13:04.070Z,1280
2017-04-15T08:13:44.500Z,1315
2017-04-15T08:14:24.941Z,1340
2017-04-15T08:15:05.329Z,1335
2017-04-15T08:15:45.758Z,1325
2017-04-15T08:16:26.189Z,1360
2017-04-15T08:17:06.581Z,1465
2017-04-15T08:17:47.002Z,1540
2017-04-15T08:20:25.783Z,1825
2017-04-15T08:21:06.786Z,1880
2017-04-15T08:21:47.947Z,1880
2017-04-15T08:22:28.400Z,1895
2017-04-15T08:23:08.797Z,1865
2017-04-15T08:23:49.189Z,1830
2017-04-15T08:24:29.621Z,1765
2017-04-15T08:25:10.046Z,1700
2017-04-15T08:25:50.435Z,1670
2017-04-15T08:26:31.558Z,1545
2017-04-15T08:27:11.970Z,1625
2017-04-15T08:29:45.138Z,1695
2017-04-15T08:30:25.589Z,1655
2017-04-15T08:31:07.440Z,1630
2017-04-15T08:31:47.948Z,1355
2017-04-15T08:32:29.002Z,1405
2017-04-15T08:33:10.220Z,1380
2017-04-15T08:33:50.611Z,1615
2017-04-15T08:34:31.049Z,1475
2017-04-15T08:35:11.464Z,1670
2017-04-15T08:35:51.883Z,1430
2017-04-15T08:36:32.306Z,1455
2017-04-15T08:37:12.756Z,1230
2017-04-15T08:37:53.934Z,1260
2017-04-15T08:38:34.355Z,1540
2017-04-15T08:39:15.603Z,1600
2017-04-15T08:39:55.998Z,1450
2017-04-15T08:40:37.038Z,1880
2017-04-15T08:41:17.488Z,1845
2017-04-15T08:41:57.895Z,1435
2017-04-15T08:42:38.956Z,1325
2017-04-15T08:43:19.367Z,1725
2017-04-15T08:43:59.790Z,1525
2017-04-15T08:44:40.230Z,1405
2017-04-15T08:45:20.684Z,1390
2017-04-15T08:46:01.144Z,1100
2017-04-15T08:46:41.546Z,1075
2017-04-15T08:47:23.647Z,945
2017-04-15T08:48:04.082Z,865
2017-04-15T08:48:44.536Z,810
2017-04-15T08:49:24.937Z,775
2017-04-15T08:50:05.380Z,730
2017-04-15T08:50:45.790Z,685
2017-04-15T08:51:26.231Z,640
2017-04-15T08:52:06.766Z,610
2017-04-15T08:52:47.144Z,590
2017-04-15T08:53:27.572Z,575
2017-04-15T08:54:07.990Z,565
2017-04-15T08:54:49.025Z,570
2017-04-15T08:55:29.449Z,575
2017-04-15T08:56:09.858Z,575
2017-04-15T08:58:48.800Z,605
2017-04-15T08:59:29.243Z,630
2017-04-15T09:00:09.644Z,670
2017-04-15T09:00:50.067Z,705
2017-04-15T09:01:31.130Z,755
2017-04-15T09:02:12.496Z,805
2017-04-15T09:02:52.948Z,780
2017-04-15T09:03:33.364Z,755
2017-04-15T09:04:14.004Z,740
2017-04-15T09:04:54.362Z,720
2017-04-15T09:05:34.869Z,705
2017-04-15T09:06:15.251Z,705
2017-04-15T09:06:55.669Z,690
2017-04-15T09:07:36.104Z,675
2017-04-15T09:08:16.492Z,660
2017-04-15T09:08:56.962Z,650
2017-04-15T09:09:37.381Z,640
2017-04-15T09:10:17.781Z,615
2017-04-15T09:10:58.249Z,575
2017-04-15T09:11:38.679Z,530
2017-04-15T09:12:19.199Z,505
2017-04-15T09:12:59.708Z,515
2017-04-15T09:13:40.198Z,545
2017-04-15T09:14:20.613Z,595
2017-04-15T09:15:01.008Z,660
2017-04-15T09:15:41.483Z,745
2017-04-15T09:16:21.941Z,820
2017-04-15T09:17:02.381Z,890
2017-04-15T09:17:42.819Z,920
2017-04-15T09:18:23.243Z,925
2017-04-15T09:19:03.668Z,915
2017-04-15T09:21:35.705Z,865
2017-04-15T09:22:16.155Z,920
2017-04-15T09:22:56.583Z,990
2017-04-15T09:23:37.015Z,1050
2017-04-15T09:24:17.439Z,1080
2017-04-15T09:24:57.874Z,1035
2017-04-15T09:25:38.264Z,1020
2017-04-15T09:26:19.176Z,1020
2017-04-15T09:26:59.601Z,1130
2017-04-15T09:27:40.010Z,1010
2017-04-15T09:28:20.437Z,835
2017-04-15T09:29:00.886Z,800
2017-04-15T09:29:41.300Z,750
2017-04-15T09:30:21.789Z,740
2017-04-15T09:31:03.152Z,755
2017-04-15T09:31:43.547Z,780
2017-04-15T09:32:23.968Z,805
2017-04-15T09:33:04.960Z,840
2017-04-15T09:33:46.252Z,890
2017-04-15T09:34:26.676Z,930
2017-04-15T09:35:07.066Z,970
2017-04-15T09:37:22.944Z,1140
2017-04-15T09:38:03.398Z,1195
2017-04-15T09:38:43.859Z,1245
2017-04-15T09:39:24.298Z,1275
2017-04-15T09:40:04.723Z,1310
2017-04-15T09:40:45.174Z,1345
2017-04-15T09:41:25.601Z,1295
2017-04-15T09:42:06.028Z,1335
2017-04-15T09:42:47.207Z,1310
2017-04-15T09:43:27.616Z,1375
2017-04-15T09:45:57.072Z,1425
2017-04-15T09:46:37.516Z,1220
2017-04-15T09:47:17.935Z,1110
2017-04-15T09:47:58.331Z,1110
2017-04-15T09:48:38.771Z,1110
2017-04-15T09:49:19.559Z,1000
2017-04-15T09:49:59.959Z,1040
2017-04-15T09:50:40.406Z,1045
2017-04-15T09:51:20.818Z,1045
2017-04-15T09:52:01.253Z,960
2017-04-15T09:52:41.728Z,870
2017-04-15T09:53:22.765Z,825
2017-04-15T09:54:03.200Z,840
2017-04-15T09:54:43.618Z,880
2017-04-15T09:55:24.039Z,925
2017-04-15T09:56:04.465Z,980
2017-04-15T09:56:45.100Z,1035
2017-04-15T09:57:25.527Z,1005
2017-04-15T09:58:05.952Z,1025
2017-04-15T09:58:46.354Z,1070
2017-04-15T09:59:26.796Z,1120
2017-04-15T10:00:07.217Z,1190
2017-04-15T10:00:47.643Z,1245
2017-04-15T10:01:28.080Z,1300
2017-04-15T10:02:08.515Z,1320
2017-04-15T10:02:48.900Z,1310
2017-04-15T10:03:29.932Z,1270
2017-04-15T10:04:10.347Z,1190
2017-04-15T10:04:50.749Z,1115
2017-04-15T10:05:31.181Z,1075
2017-04-15T10:06:11.599Z,1045
2017-04-15T10:06:52.019Z,1030
2017-04-15T10:07:32.429Z,1020
2017-04-15T10:08:12.821Z,990
2017-04-15T10:08:53.252Z,935
2017-04-15T10:09:33.636Z,880
2017-04-15T10:10:15.496Z,840
2017-04-15T10:10:57.583Z,835
2017-04-15T10:11:38.019Z,845
2017-04-15T10:12:18.476Z,870
2017-04-15T10:12:58.897Z,870
2017-04-15T10:13:39.332Z,845
2017-04-15T10:14:19.771Z,820
2017-04-15T10:15:00.180Z,785
2017-04-15T10:17:18.183Z,775
2017-04-15T10:17:58.625Z,775
2017-04-15T10:18:39.063Z,780
2017-04-15T10:19:20.049Z,775
2017-04-15T10:20:00.479Z,770
2017-04-15T10:22:18.857Z,805
2017-04-15T10:22:59.297Z,825
2017-04-15T10:23:40.313Z,835
2017-04-15T10:24:20.708Z,820
2017-04-15T10:25:01.127Z,800
2017-04-15T10:25:41.505Z,795
2017-04-15T10:26:21.934Z,810
2017-04-15T10:27:02.322Z,820
2017-04-15T10:27:42.753Z,825
2017-04-15T10:28:23.179Z,840
2017-04-15T10:29:04.469Z,850
2017-04-15T10:29:44.853Z,870
2017-04-15T10:30:25.320Z,905
2017-04-15T10:31:05.672Z,950
2017-04-15T10:31:46.114Z,990
2017-04-15T10:32:26.505Z,1010
2017-04-15T10:33:06.949Z,980
2017-04-15T10:33:47.402Z,925
2017-04-15T10:34:27.816Z,845
2017-04-15T10:35:08.259Z,780
2017-04-15T10:35:49.279Z,710
2017-04-15T10:36:29.716Z,655
2017-04-15T10:37:10.145Z,635
2017-04-15T10:37:50.569Z,625
2017-04-15T10:38:30.992Z,635
2017-04-15T10:39:11.397Z,665
2017-04-15T10:39:51.841Z,700
2017-04-15T10:40:32.278Z,735
2017-04-15T10:41:12.682Z,750
2017-04-15T10:41:54.001Z,755
2017-04-15T10:42:34.597Z,765
2017-04-15T10:43:15.043Z,770
2017-04-15T10:43:55.455Z,770
2017-04-15T10:44:35.877Z,775
2017-04-15T10:45:16.341Z,775
2017-04-15T10:45:56.729Z,770
2017-04-15T10:46:37.134Z,755
2017-04-15T10:47:17.620Z,720
2017-04-15T10:47:58.059Z,690
2017-04-15T10:48:38.480Z,655
2017-04-15T10:49:18.922Z,630
2017-04-15T10:49:59.359Z,600
2017-04-15T10:50:39.765Z,570
2017-04-15T10:51:20.207Z,540
2017-04-15T10:52:00.602Z,530
2017-04-15T10:52:41.034Z,530
2017-04-15T10:53:21.459Z,535
2017-04-15T10:54:01.846Z,535
2017-04-15T10:54:42.285Z,530
2017-04-15T10:56:55.298Z,495
2017-04-15T10:57:35.739Z,505
2017-04-15T10:58:16.160Z,510
2017-04-15T10:58:56.613Z,525
2017-04-15T10:59:37.026Z,545
2017-04-15T11:00:17.470Z,560
2017-04-15T11:00:58.732Z,570
2017-04-15T11:01:39.186Z,595
2017-04-15T11:04:07.214Z,725